createdAt,value
2019-05-02T00:01:13.982Z,43.13
2019-05-02T00:03:43.872Z,40.12
2019-05-02T00:06:14.098Z,46.75
2019-05-02T00:08:43.896Z,41.50
2019-05-02T00:11:13.579Z,43.83
2019-05-02T00:13:43.529Z,43.43
2019-05-02T00:16:14.128Z,41.10
2019-05-02T00:18:44.769Z,45.95
2019-05-02T00:21:14.272Z,45.78
2019-05-02T00:23:43.909Z,39.45
2019-05-02T00:26:13.477Z,41.40
2019-05-02T00:28:47.809Z,48.75
2019-05-02T00:31:14.628Z,49.80
2019-05-02T00:33:44.546Z,47.95
2019-05-02T00:36:14.452Z,52.85
2019-05-02T00:38:44.195Z,47.62
2019-05-02T00:41:14.012Z,46.37
2019-05-02T00:43:43.550Z,46.30
2019-05-02T00:46:13.536Z,47.40
2019-05-02T00:48:54.191Z,46.70
2019-05-02T00:51:26.780Z,45.95
2019-05-02T00:53:56.331Z,46.08
2019-05-02T00:56:25.778Z,44.75
2019-05-02T00:58:55.346Z,52.27
2019-05-02T01:01:30.908Z,48.90
2019-05-02T01:04:10.850Z,47.03
2019-05-02T01:06:40.680Z,49.45
2019-05-02T01:09:11.156Z,55.27
2019-05-02T01:11:40.929Z,53.80
2019-05-02T01:14:10.236Z,47.93
2019-05-02T01:16:39.561Z,47.75
2019-05-02T01:19:12.199Z,47.65
2019-05-02T01:21:40.131Z,49.50
2019-05-02T01:24:09.588Z,51.00
2019-05-02T01:26:40.776Z,49.00
2019-05-02T01:29:11.873Z,51.77
2019-05-02T01:31:55.801Z,46.65
2019-05-02T01:34:38.685Z,53.50
2019-05-02T01:37:20.369Z,46.95
2019-05-02T01:39:44.091Z,53.40
2019-05-02T01:42:13.418Z,68.75
2019-05-02T01:44:42.668Z,100.62
2019-05-02T01:47:12.571Z,117.22
2019-05-02T01:49:41.844Z,149.07
2019-05-02T01:52:11.191Z,155.45
2019-05-02T01:54:40.761Z,156.82
2019-05-02T01:57:11.467Z,152.70
2019-05-02T01:59:40.758Z,145.32
2019-05-02T02:02:10.191Z,133.67
2019-05-02T02:04:39.477Z,99.35
2019-05-02T02:07:08.848Z,74.67
2019-05-02T02:09:38.770Z,67.08
2019-05-02T02:12:11.287Z,60.65
2019-05-02T02:14:40.725Z,60.50
2019-05-02T02:17:15.588Z,57.90
2019-05-02T02:19:43.096Z,56.70
2019-05-02T02:22:19.971Z,62.58
2019-05-02T02:24:50.875Z,63.23
2019-05-02T02:27:24.542Z,68.07
2019-05-02T02:29:51.263Z,64.15
2019-05-02T02:32:27.127Z,67.65
2019-05-02T02:34:51.715Z,71.95
2019-05-02T02:37:21.182Z,68.83
2019-05-02T02:39:54.098Z,80.55
2019-05-02T02:42:25.000Z,65.65
2019-05-02T02:49:55.945Z,70.78
2019-05-02T02:52:23.962Z,65.17
2019-05-02T02:54:53.630Z,69.72
2019-05-02T02:57:27.959Z,70.55
2019-05-02T03:00:06.752Z,70.17
2019-05-02T03:02:25.168Z,74.95
2019-05-02T03:04:54.394Z,75.83
2019-05-02T03:07:25.815Z,67.82
2019-05-02T03:09:59.709Z,79.07
2019-05-02T03:12:27.592Z,77.03
2019-05-02T03:14:58.692Z,69.37
2019-05-02T03:17:28.799Z,67.42
2019-05-02T03:20:01.558Z,72.82
2019-05-02T03:22:34.851Z,69.58
2019-05-02T03:25:00.728Z,81.20
2019-05-02T03:29:59.061Z,80.20
2019-05-02T03:32:34.667Z,78.92
2019-05-02T03:34:59.687Z,73.17
2019-05-02T03:37:28.988Z,73.78
2019-05-02T03:40:00.646Z,77.17
2019-05-02T03:42:29.269Z,82.55
2019-05-02T03:45:04.304Z,75.85
2019-05-02T03:47:29.640Z,84.37
2019-05-02T03:49:59.073Z,82.10
2019-05-02T03:52:28.734Z,79.17
2019-05-02T03:54:58.380Z,80.33
2019-05-02T03:57:33.588Z,78.47
2019-05-02T03:59:59.049Z,82.45
2019-05-02T04:02:28.840Z,83.22
2019-05-02T04:05:00.389Z,83.82
2019-05-02T04:07:39.795Z,83.33
2019-05-02T04:10:01.777Z,88.75
2019-05-02T04:12:32.937Z,84.50
2019-05-02T04:15:02.306Z,94.32
2019-05-02T04:17:35.400Z,95.65
2019-05-02T04:20:09.674Z,95.12
2019-05-02T04:22:43.000Z,86.75
2019-05-02T04:25:07.718Z,97.40
2019-05-02T04:27:37.292Z,85.92
2019-05-02T04:30:11.224Z,95.63
2019-05-02T04:32:42.740Z,83.58
2019-05-02T04:35:10.077Z,94.50
2019-05-02T04:37:41.193Z,89.50
2019-05-02T04:40:12.343Z,80.75
2019-05-02T04:42:41.549Z,85.65
2019-05-02T04:45:24.153Z,94.50
2019-05-02T04:47:42.579Z,84.42
2019-05-02T04:56:07.144Z,78.33
2019-05-02T05:28:58.391Z,71.25
2019-05-02T05:36:50.426Z,74.77
2019-05-02T05:42:30.149Z,84.22
2019-05-02T05:45:03.791Z,77.45
2019-05-02T05:52:43.377Z,86.47
2019-05-02T05:55:20.599Z,77.92
2019-05-02T05:57:47.601Z,81.82
2019-05-02T06:00:22.979Z,74.77
2019-05-02T06:02:56.205Z,90.70
2019-05-02T06:05:24.242Z,78.62
2019-05-02T06:07:57.530Z,80.95
2019-05-02T06:10:46.929Z,76.33
2019-05-02T06:13:16.340Z,82.25
2019-05-02T06:15:46.238Z,80.95
2019-05-02T06:18:16.328Z,83.58
2019-05-02T06:20:45.614Z,86.28
2019-05-02T06:23:15.500Z,79.05
2019-05-02T06:25:45.308Z,78.87
2019-05-02T06:37:22.203Z,75.83
2019-05-02T06:51:57.591Z,69.85
2019-05-02T06:54:28.769Z,70.62
2019-05-02T06:57:13.007Z,72.85
2019-05-02T06:59:42.562Z,69.77
2019-05-02T07:02:12.261Z,76.20
2019-05-02T07:04:43.090Z,73.10
2019-05-02T07:07:14.441Z,79.05
2019-05-02T07:09:45.551Z,78.37
2019-05-02T08:07:38.358Z,77.62
2019-05-02T08:10:08.263Z,70.57
2019-05-02T08:12:38.280Z,79.37
2019-05-02T08:15:13.201Z,69.85
2019-05-02T08:17:41.629Z,68.40
2019-05-02T08:22:43.987Z,67.55
2019-05-02T08:25:12.853Z,73.28
2019-05-02T08:27:53.867Z,72.87
2019-05-02T08:30:24.859Z,72.12
2019-05-02T08:32:55.744Z,62.43
2019-05-02T08:38:37.208Z,73.87
2019-05-02T08:41:07.950Z,67.37
2019-05-02T08:51:50.244Z,72.92
2019-05-02T08:57:29.951Z,60.00
2019-05-02T09:00:02.782Z,66.15
2019-05-02T09:14:03.866Z,62.27
2019-05-02T09:16:36.147Z,63.35
2019-05-02T09:22:25.643Z,62.83
2019-05-02T09:27:52.663Z,72.08
2019-05-02T09:30:42.531Z,61.35
2019-05-02T09:38:12.983Z,62.67
2019-05-02T09:51:17.334Z,67.10
2019-05-02T10:02:04.393Z,62.40
2019-05-02T10:04:34.252Z,61.45
2019-05-02T10:07:04.583Z,58.17
2019-05-02T10:15:42.138Z,59.33
2019-05-02T11:23:24.813Z,98.92
2019-05-02T11:26:04.779Z,91.97
2019-05-02T11:31:37.996Z,85.03
2019-05-02T11:39:53.495Z,91.12
2019-05-02T11:49:25.168Z,91.55
2019-05-02T11:57:54.544Z,81.17
2019-05-02T12:21:34.159Z,82.90
2019-05-02T12:31:47.183Z,74.90
2019-05-02T12:34:19.021Z,82.08
2019-05-02T12:36:48.890Z,78.85
2019-05-02T12:39:19.265Z,82.02
2019-05-02T13:57:05.116Z,24.10
2019-05-02T13:59:36.250Z,23.02
2019-05-02T14:10:44.742Z,15.08
2019-05-02T14:16:02.390Z,31.17
2019-05-02T14:18:33.629Z,19.25
2019-05-02T14:21:02.891Z,19.10
2019-05-02T14:23:32.207Z,17.87
2019-05-02T14:26:02.157Z,18.35
2019-05-02T14:28:36.086Z,17.20
2019-05-02T14:31:03.495Z,21.33
2019-05-02T14:33:35.257Z,17.77
2019-05-02T14:36:05.123Z,18.98
2019-05-02T14:41:12.450Z,17.55
2019-05-02T14:43:53.851Z,19.80
2019-05-02T14:46:29.022Z,18.15
2019-05-02T14:48:56.834Z,18.62
2019-05-02T14:51:27.899Z,19.53
2019-05-02T14:54:03.753Z,17.10
2019-05-02T14:59:02.816Z,23.87
2019-05-02T15:04:22.643Z,26.33
2019-05-02T15:06:52.649Z,29.25
2019-05-02T15:09:26.837Z,30.02
2019-05-02T15:14:30.140Z,27.58
2019-05-02T15:17:00.034Z,25.17
2019-05-02T15:19:30.058Z,24.40
2019-05-02T15:21:59.520Z,25.48
2019-05-02T15:26:58.015Z,26.60
2019-05-02T15:29:27.578Z,26.55
2019-05-02T15:32:07.225Z,22.50
2019-05-02T15:34:46.312Z,29.18
2019-05-02T15:44:37.384Z,26.90
2019-05-02T15:47:07.154Z,28.17
2019-05-02T15:49:41.695Z,29.75
2019-05-02T15:52:12.469Z,29.57
2019-05-02T15:54:42.595Z,31.68
2019-05-02T15:57:12.934Z,30.80
2019-05-02T15:59:46.124Z,31.62
2019-05-02T16:02:22.896Z,35.28
2019-05-02T16:04:49.656Z,34.40
2019-05-02T16:07:19.114Z,37.43
2019-05-02T16:09:51.518Z,40.03
2019-05-02T16:15:18.112Z,34.38
2019-05-02T16:17:42.222Z,28.62
2019-05-02T16:20:14.102Z,31.85
2019-05-02T16:22:49.249Z,27.52
2019-05-02T16:25:14.605Z,25.72
2019-05-02T16:27:45.664Z,31.33
2019-05-02T16:30:17.516Z,24.77
2019-05-02T16:32:48.365Z,23.73
2019-05-02T16:35:19.403Z,21.70
2019-05-02T16:37:52.334Z,20.70
2019-05-02T16:40:22.150Z,23.77
2019-05-02T16:42:51.872Z,21.93
2019-05-02T16:45:22.211Z,17.98
2019-05-02T16:47:58.675Z,20.52
2019-05-02T16:50:23.010Z,13.35
2019-05-02T16:52:53.088Z,16.95
2019-05-02T16:55:26.533Z,10.03
2019-05-02T16:57:56.864Z,12.28
2019-05-02T17:00:25.712Z,7.47
2019-05-02T17:02:54.912Z,11.57
2019-05-02T17:05:24.247Z,10.08
2019-05-02T17:08:10.574Z,8.63
2019-05-02T17:10:39.712Z,9.63
2019-05-02T17:13:09.099Z,7.80
2019-05-02T17:15:38.566Z,11.30
2019-05-02T17:18:18.070Z,12.47
2019-05-02T17:20:38.977Z,9.48
2019-05-02T17:23:08.361Z,9.93
2019-05-02T17:25:37.672Z,6.20
2019-05-02T17:28:10.372Z,10.80
2019-05-02T17:30:45.104Z,8.05
2019-05-02T17:33:17.555Z,8.75
2019-05-02T17:35:53.614Z,11.85
2019-05-02T17:38:27.668Z,11.35
2019-05-02T17:40:54.353Z,8.15
2019-05-02T17:43:23.183Z,12.47
2019-05-02T17:45:52.783Z,11.53
2019-05-02T17:48:22.140Z,9.58
2019-05-02T17:50:59.548Z,13.28
2019-05-02T17:53:33.607Z,15.03
2019-05-02T17:56:01.883Z,12.25
2019-05-02T17:58:33.838Z,12.82
2019-05-02T18:01:04.418Z,11.38
2019-05-02T18:03:35.349Z,11.80
2019-05-02T18:06:07.564Z,10.60
2019-05-02T18:08:36.177Z,12.33
2019-05-02T18:11:05.659Z,13.00
2019-05-02T18:13:35.521Z,11.68
2019-05-02T18:16:07.845Z,12.73
2019-05-02T18:18:37.453Z,13.48
2019-05-02T18:21:08.376Z,15.28
2019-05-02T18:23:37.794Z,10.20
2019-05-02T18:26:07.105Z,9.73
2019-05-02T18:28:46.147Z,15.30
2019-05-02T18:31:07.903Z,9.08
2019-05-02T18:33:41.320Z,9.30
2019-05-02T18:36:08.713Z,9.58
2019-05-02T18:38:38.058Z,6.42
2019-05-02T18:41:08.007Z,6.78
2019-05-02T18:43:41.483Z,8.75
2019-05-02T18:46:09.034Z,5.67
2019-05-02T18:48:42.149Z,8.47
2019-05-02T18:51:09.440Z,9.43
2019-05-02T18:53:38.800Z,7.95
2019-05-02T18:56:08.192Z,10.05
2019-05-02T18:58:41.337Z,14.10
2019-05-02T19:01:14.070Z,10.80
2019-05-02T19:03:39.922Z,10.50
2019-05-02T19:06:11.566Z,7.65
2019-05-02T19:08:46.559Z,10.10
2019-05-02T19:11:13.175Z,15.03
2019-05-02T19:13:44.189Z,5.15
2019-05-02T19:16:13.908Z,10.68
2019-05-02T19:18:43.441Z,6.65
2019-05-02T19:21:12.919Z,7.10
2019-05-02T19:23:42.631Z,8.38
2019-05-02T19:26:14.670Z,11.33
2019-05-02T19:28:45.007Z,11.55
2019-05-02T19:31:17.366Z,9.10
2019-05-02T19:33:46.999Z,9.88
2019-05-02T19:36:27.451Z,12.40
2019-05-02T19:38:52.575Z,8.50
2019-05-02T19:41:22.406Z,13.70
2019-05-02T19:43:56.326Z,12.15
2019-05-02T19:49:22.408Z,9.68
2019-05-02T19:51:58.306Z,11.18
2019-05-02T19:54:33.554Z,10.60
2019-05-02T19:59:57.126Z,11.93
2019-05-02T20:02:29.084Z,8.88
2019-05-02T20:07:27.195Z,10.20
2019-05-02T20:09:56.898Z,7.62
2019-05-02T20:12:26.267Z,8.33
2019-05-02T20:14:56.174Z,7.72
2019-05-02T20:17:25.571Z,12.58
2019-05-02T20:19:57.901Z,8.68
2019-05-02T20:22:28.077Z,13.22
2019-05-02T20:25:03.074Z,15.72
2019-05-02T20:29:58.651Z,6.95
2019-05-02T20:32:28.387Z,8.88
2019-05-02T20:34:58.117Z,8.77
2019-05-02T20:37:27.584Z,10.23
2019-05-02T20:39:57.365Z,8.58
2019-05-02T20:42:26.806Z,13.98
2019-05-02T20:44:56.168Z,10.70
2019-05-02T20:47:25.903Z,7.62
2019-05-02T20:49:55.416Z,7.67
2019-05-02T20:52:25.405Z,11.93
2019-05-02T20:54:55.029Z,8.68
2019-05-02T20:57:24.464Z,10.23
2019-05-02T21:02:22.985Z,10.13
2019-05-02T21:04:52.655Z,16.75
2019-05-02T21:07:29.430Z,14.13
2019-05-02T21:10:01.938Z,10.55
2019-05-02T21:12:31.344Z,11.40
2019-05-02T21:15:01.745Z,6.00
2019-05-02T21:17:32.736Z,6.90
2019-05-02T21:20:02.385Z,6.87
2019-05-02T21:22:32.754Z,10.30
2019-05-02T21:25:02.544Z,4.83
2019-05-02T21:27:32.498Z,8.00
2019-05-02T21:30:02.494Z,8.15
2019-05-02T21:32:32.186Z,9.90
2019-05-02T21:35:02.751Z,11.77
2019-05-02T21:40:02.743Z,13.72
2019-05-02T21:42:32.346Z,9.93
2019-05-02T21:45:02.406Z,13.85
2019-05-02T21:47:32.382Z,10.53
2019-05-02T21:50:03.448Z,13.88
2019-05-02T21:52:43.369Z,9.08
2019-05-02T21:55:29.145Z,9.05
2019-05-02T21:57:59.356Z,7.78
2019-05-02T22:00:33.437Z,12.40
2019-05-02T22:03:02.797Z,11.68
2019-05-02T22:05:32.087Z,12.85
2019-05-02T22:08:02.964Z,12.07
2019-05-02T22:10:32.519Z,13.50
2019-05-02T22:13:02.536Z,15.03
2019-05-02T22:15:32.526Z,12.00
2019-05-02T22:18:02.287Z,15.90
2019-05-02T22:20:32.063Z,15.93
2019-05-02T22:23:02.400Z,17.80
2019-05-02T22:25:32.710Z,19.30
2019-05-02T22:28:02.098Z,16.62
2019-05-02T22:30:32.296Z,13.95
2019-05-02T22:33:02.793Z,17.40
2019-05-02T22:38:03.200Z,16.40
2019-05-02T22:40:32.750Z,19.48
2019-05-02T22:43:04.552Z,11.95
2019-05-02T22:45:33.752Z,11.73
2019-05-02T22:48:02.978Z,16.35
2019-05-02T22:50:32.580Z,13.93
2019-05-02T22:53:02.074Z,15.07
2019-05-02T22:55:32.004Z,9.25
2019-05-02T22:58:02.330Z,12.90
2019-05-02T23:00:33.395Z,13.38
2019-05-02T23:03:02.963Z,15.83
2019-05-02T23:05:34.386Z,13.08
2019-05-02T23:08:03.851Z,18.98
2019-05-02T23:10:33.337Z,18.87
2019-05-02T23:13:02.739Z,13.13
2019-05-02T23:15:32.241Z,18.55
2019-05-02T23:18:01.986Z,11.55
2019-05-02T23:20:32.885Z,17.92
2019-05-02T23:23:02.330Z,13.83
2019-05-02T23:25:51.944Z,15.58
2019-05-02T23:28:24.345Z,15.18
2019-05-02T23:30:53.779Z,23.52
2019-05-02T23:33:25.035Z,19.50
2019-05-02T23:35:54.487Z,15.15
2019-05-02T23:38:24.069Z,10.58
2019-05-02T23:40:53.715Z,14.03
2019-05-02T23:43:23.537Z,12.83
2019-05-02T23:45:53.531Z,15.05
2019-05-02T23:48:23.031Z,13.30
2019-05-02T23:50:52.806Z,13.72
2019-05-02T23:53:22.390Z,20.20
2019-05-02T23:55:51.752Z,12.03
2019-05-02T23:58:22.616Z,12.58
